Citta Di Savona — IMDS — position and weather

sailwx.info

Track history (hours):
 
Tides and Currents Weather Stations Pressure Air Temp Water Temp Dewpoint Dewpoint Depression Visibility Wind Speed Wind Dir Waves Ship Positions

Citta Di Savona

Last reported at 2017-Jun-23 13:25 UTC. Time now 2017-Jun-23 14:05 UTC.
Position N 44°18' E 008°29'.

Length 31 m; draft 4.2 m.

Type: Tug. MMSI: 247402000.

Date/timePositionNaut miles runAvg speedWind from/ knotsBaromVisibWave heightAir tempDewpointWater temp
2017-Jun-23 13:25N 44°18' E 008°29'0 0.0
2017-Jun-23 12:55N 44°18' E 008°29'0 0.0
2017-Jun-23 12:19N 44°18' E 008°29'0 0.0
2017-Jun-23 07:52N 44°18' E 008°29'0 0.0
2017-Jun-23 07:28N 44°18' E 008°29'0 0.0
2017-Jun-23 06:58N 44°18' E 008°29'0 0.6
2017-Jun-23 06:30N 44°19' E 008°29'2 4.4
2017-Jun-23 06:00N 44°17' E 008°28'1 2.4
2017-Jun-23 05:30N 44°16' E 008°27'1 2.5
2017-Jun-23 05:00N 44°16' E 008°29'3 5.3
2017-Jun-23 04:30N 44°19' E 008°30'0 0.9
2017-Jun-23 04:00N 44°18' E 008°29'0 0.0
2017-Jun-23 03:12N 44°18' E 008°29'0 0.0
2017-Jun-23 02:42N 44°18' E 008°29'0 0.0
2017-Jun-23 02:30N 44°18' E 008°29'0 0.0
2017-Jun-23 02:00N 44°18' E 008°29'0 0.0
2017-Jun-23 01:30N 44°18' E 008°29'0 0.0
2017-Jun-23 01:00N 44°18' E 008°29'0 0.0
2017-Jun-23 00:24N 44°18' E 008°29'0 0.0
2017-Jun-22 23:54N 44°18' E 008°29'0 0.0
2017-Jun-22 13:39N 44°18' E 008°29'1 5.4
2017-Jun-22 13:30N 44°19' E 008°30'3 6.3
2017-Jun-22 13:00N 44°16' E 008°28'0 0.2
2017-Jun-22 12:27N 44°17' E 008°28'0 0.3
2017-Jun-22 11:58N 44°17' E 008°28'2 0.5
2017-Jun-22 07:14N 44°18' E 008°29'0 0.0
2017-Jun-22 06:56N 44°18' E 008°29'0 0.0
2017-Jun-22 06:26N 44°18' E 008°29'0 0.0
2017-Jun-22 05:56N 44°18' E 008°29'0 0.0
2017-Jun-22 05:26N 44°18' E 008°29'0 0.0
2017-Jun-22 04:56N 44°18' E 008°29'0 0.0
2017-Jun-22 04:26N 44°18' E 008°29'0 0.0
2017-Jun-22 03:50N 44°18' E 008°29'0 0.0
2017-Jun-22 03:26N 44°18' E 008°29'0 0.0
2017-Jun-22 02:56N 44°18' E 008°29'0 0.0
2017-Jun-22 02:26N 44°18' E 008°29'0 0.0
2017-Jun-22 01:56N 44°18' E 008°29'0 0.0
2017-Jun-22 01:26N 44°18' E 008°29'0 0.0
2017-Jun-21 21:56N 44°18' E 008°29'0 0.0
2017-Jun-21 21:29N 44°18' E 008°29'0 0.0
2017-Jun-21 20:47N 44°18' E 008°29'0 0.0
2017-Jun-21 20:26N 44°18' E 008°29'0 0.0
2017-Jun-21 19:53N 44°18' E 008°29'0 0.0
2017-Jun-21 19:11N 44°18' E 008°29'0 0.0
2017-Jun-21 18:59N 44°18' E 008°29'0 0.0
2017-Jun-21 18:29N 44°18' E 008°29'0 0.0
2017-Jun-21 17:59N 44°18' E 008°29'0 0.0
2017-Jun-21 17:29N 44°18' E 008°29'0 0.0
2017-Jun-21 16:59N 44°18' E 008°29'0 0.9
2017-Jun-21 16:30N 44°19' E 008°30'0 0.4
2017-Jun-21 16:00N 44°19' E 008°30'0 0.9
2017-Jun-21 15:26N 44°18' E 008°29'0 0.0
2017-Jun-21 14:50N 44°18' E 008°29'0 0.0
2017-Jun-21 08:08N 44°18' E 008°29'0 0.0
2017-Jun-21 07:56N 44°18' E 008°29'1 1.9
2017-Jun-21 07:30N 44°19' E 008°30'3 5.7
2017-Jun-21 06:58N 44°17' E 008°28'0 0.1
2017-Jun-21 06:28N 44°17' E 008°28'0 0.5
2017-Jun-21 05:58N 44°16' E 008°28'2 4.5
2017-Jun-21 05:30N 44°18' E 008°30'1 0.9
2017-Jun-21 04:56N 44°18' E 008°29'0 0.0
2017-Jun-21 04:26N 44°18' E 008°29'0 0.0
2017-Jun-21 03:56N 44°18' E 008°29'0 0.0
2017-Jun-21 03:26N 44°18' E 008°29'0 0.0
2017-Jun-21 02:50N 44°18' E 008°29'0 0.0
2017-Jun-21 02:20N 44°18' E 008°29'0 0.0
2017-Jun-21 01:56N 44°18' E 008°29'0 0.0
2017-Jun-21 01:26N 44°18' E 008°29'0 0.0
2017-Jun-21 00:50N 44°18' E 008°29'0 0.0
2017-Jun-21 00:26N 44°18' E 008°29'0 0.0
2017-Jun-20 23:56N 44°18' E 008°29'0 0.0
2017-Jun-20 23:02N 44°18' E 008°29'0 0.0
2017-Jun-20 22:56N 44°18' E 008°29'0 0.0
2017-Jun-20 22:26N 44°18' E 008°29'0 0.0
2017-Jun-20 21:56N 44°18' E 008°29'0 0.0
2017-Jun-20 21:20N 44°18' E 008°29'0 0.0
2017-Jun-20 20:56N 44°18' E 008°29'0 0.0
2017-Jun-20 19:44N 44°18' E 008°29'0 0.0
2017-Jun-20 19:20N 44°18' E 008°29'0 0.0
2017-Jun-20 18:56N 44°18' E 008°29'0 0.0
2017-Jun-20 18:14N 44°18' E 008°29'1 3.2
2017-Jun-20 18:00N 44°19' E 008°30'0 0.4
2017-Jun-20 17:30N 44°19' E 008°30'0 0.7
2017-Jun-20 17:00N 44°19' E 008°30'1 1.8
2017-Jun-20 16:30N 44°18' E 008°29'0 0.0
2017-Jun-20 15:42N 44°18' E 008°29'0 0.0
2017-Jun-20 15:30N 44°18' E 008°29'0 0.0
2017-Jun-20 12:54N 44°18' E 008°29'0 0.0
2017-Jun-20 10:57N 44°18' E 008°29'0 0.0
2017-Jun-20 09:03N 44°18' E 008°29'0 0.1
2017-Jun-20 08:57N 44°18' E 008°29'0 0.0
2017-Jun-20 08:27N 44°18' E 008°29'0 0.0
2017-Jun-20 07:57N 44°18' E 008°29'0 0.0
2017-Jun-20 07:28N 44°18' E 008°29'0 0.7
2017-Jun-20 06:58N 44°19' E 008°30'1 1.2
2017-Jun-20 06:30N 44°19' E 008°31'1 1.7
2017-Jun-20 05:58N 44°18' E 008°29'0 0.0
2017-Jun-20 05:17N 44°18' E 008°29'0 1.6
2017-Jun-20 04:59N 44°19' E 008°30'0 1.0
2017-Jun-20 04:30N 44°19' E 008°31'1 1.6
2017-Jun-20 03:55N 44°18' E 008°29'0 0.0
2017-Jun-19 17:49N 44°18' E 008°29'0 0.0
2017-Jun-19 17:25N 44°18' E 008°29'0 0.0
2017-Jun-19 16:58N 44°18' E 008°29'0 0.0
2017-Jun-19 16:28N 44°18' E 008°29'0 0.0
2017-Jun-19 15:58N 44°18' E 008°29'0 0.0
2017-Jun-19 15:28N 44°18' E 008°29'0 0.0
2017-Jun-19 14:55N 44°18' E 008°29'0 0.0
2017-Jun-19 13:49N 44°18' E 008°29'0 0.0
2017-Jun-19 13:25N 44°18' E 008°29'0 0.0
2017-Jun-19 12:49N 44°18' E 008°29'0 0.0
2017-Jun-19 12:26N 44°18' E 008°29'1 1.3
2017-Jun-19 11:57N 44°19' E 008°30'1 2.1
2017-Jun-19 11:30N 44°19' E 008°31'1 1.6
2017-Jun-19 11:00N 44°19' E 008°30'0 0.1
2017-Jun-19 10:27N 44°19' E 008°30'0 0.6
2017-Jun-19 10:00N 44°19' E 008°30'1 1.4
2017-Jun-19 09:27N 44°18' E 008°29'0 0.0
2017-Jun-19 09:00N 44°18' E 008°29'0 0.0
2017-Jun-19 08:30N 44°18' E 008°29'0 0.0
2017-Jun-19 08:00N 44°18' E 008°29'0 0.0
2017-Jun-19 07:30N 44°18' E 008°29'0 0.0
2017-Jun-19 07:00N 44°18' E 008°29'0 0.0
2017-Jun-19 06:30N 44°18' E 008°29'0 0.0
2017-Jun-19 06:00N 44°18' E 008°29'0 0.0
2017-Jun-19 05:30N 44°18' E 008°29'0 0.0
2017-Jun-19 05:00N 44°18' E 008°29'0 0.0
2017-Jun-19 04:30N 44°18' E 008°29'0 0.0
2017-Jun-18 21:51N 44°18' E 008°29'0 0.0
2017-Jun-18 21:15N 44°18' E 008°29'0 0.0
2017-Jun-18 20:03N 44°18' E 008°29'0 0.1
2017-Jun-18 20:00N 44°18' E 008°29'0 0.0
2017-Jun-18 19:27N 44°18' E 008°29'0 0.0
2017-Jun-18 18:51N 44°18' E 008°29'0 0.0
2017-Jun-18 18:21N 44°18' E 008°29'0 0.0
2017-Jun-18 17:57N 44°18' E 008°29'0 0.0
2017-Jun-18 17:27N 44°18' E 008°29'0 0.0
2017-Jun-18 16:57N 44°18' E 008°29'0 0.0
2017-Jun-18 16:21N 44°18' E 008°29'0 0.0
2017-Jun-18 15:57N 44°18' E 008°29'0 0.0
2017-Jun-18 15:15N 44°18' E 008°29'0 0.0
2017-Jun-18 14:45N 44°18' E 008°29'0 0.0
2017-Jun-18 13:57N 44°18' E 008°29'0 0.0
2017-Jun-18 13:27N 44°18' E 008°29'0 0.0
2017-Jun-18 12:57N 44°18' E 008°29'0 0.0
2017-Jun-18 10:30N 44°18' E 008°29'0 0.0
2017-Jun-18 08:21N 44°18' E 008°29'0 0.0
2017-Jun-18 07:57N 44°18' E 008°29'0 0.0
2017-Jun-18 07:24N 44°18' E 008°29'0 0.0
2017-Jun-18 06:57N 44°18' E 008°29'0 0.8
2017-Jun-18 06:30N 44°19' E 008°30'1 1.7
2017-Jun-18 06:00N 44°19' E 008°31'1 1.6
2017-Jun-18 05:26N 44°18' E 008°29'0 0.0
2017-Jun-18 04:50N 44°18' E 008°29'0 0.0
2017-Jun-18 04:29N 44°18' E 008°29'0 0.0
2017-Jun-17 18:21N 44°18' E 008°29'0 0.8
2017-Jun-17 18:00N 44°19' E 008°29'0 0.1
2017-Jun-17 17:31N 44°19' E 008°30'0 0.5
2017-Jun-17 16:55N 44°18' E 008°29'0 0.0
2017-Jun-17 16:25N 44°18' E 008°29'0 0.0
2017-Jun-17 15:55N 44°18' E 008°29'0 0.0
2017-Jun-17 15:25N 44°18' E 008°29'0 0.0
2017-Jun-17 14:55N 44°18' E 008°29'0 0.0
2017-Jun-17 14:25N 44°18' E 008°29'0 0.0
2017-Jun-17 13:25N 44°18' E 008°29'0 0.0
2017-Jun-17 12:55N 44°18' E 008°29'0 0.0
2017-Jun-17 12:25N 44°18' E 008°29'0 0.0
2017-Jun-17 11:55N 44°18' E 008°29'0 0.0
2017-Jun-17 11:28N 44°18' E 008°29'0 0.0
2017-Jun-17 10:58N 44°18' E 008°29'0 0.0
2017-Jun-17 10:28N 44°18' E 008°29'0 0.0
2017-Jun-17 09:13N 44°18' E 008°29'0 0.0
2017-Jun-17 08:43N 44°18' E 008°29'0 0.0
2017-Jun-17 08:28N 44°18' E 008°29'0 0.0
2017-Jun-17 07:58N 44°18' E 008°29'0 0.0
2017-Jun-17 07:25N 44°18' E 008°29'0 0.0
2017-Jun-17 06:55N 44°18' E 008°29'0 0.0
2017-Jun-17 06:25N 44°18' E 008°29'1 1.4
2017-Jun-17 05:58N 44°19' E 008°30'0 0.0
2017-Jun-17 05:29N 44°19' E 008°30'0 0.6
2017-Jun-17 04:59N 44°19' E 008°30'0 0.3
2017-Jun-17 04:29N 44°19' E 008°30'1 1.1
2017-Jun-17 03:47N 44°18' E 008°29'0 0.0
2017-Jun-17 03:29N 44°18' E 008°29'0 0.0
2017-Jun-17 02:59N 44°18' E 008°29'0 0.0
2017-Jun-17 02:26N 44°18' E 008°29'0 0.0
2017-Jun-17 01:47N 44°18' E 008°29'0 0.0
2017-Jun-16 12:55N 44°18' E 008°29'0 0.0
2017-Jun-16 07:46N 44°18' E 008°29'0 0.0
2017-Jun-16 07:28N 44°18' E 008°29'0 0.0
2017-Jun-16 06:40N 44°18' E 008°29'0 0.0
2017-Jun-16 06:28N 44°18' E 008°29'0 0.0
2017-Jun-16 05:58N 44°18' E 008°29'0 0.0
2017-Jun-16 05:28N 44°18' E 008°29'0 0.0
2017-Jun-16 04:58N 44°18' E 008°29'0 0.0
2017-Jun-16 04:28N 44°18' E 008°29'0 0.0
2017-Jun-15 08:07N 44°18' E 008°29'0 0.0
2017-Jun-15 07:37N 44°18' E 008°29'0 0.0
2017-Jun-15 06:19N 44°18' E 008°29'0 0.0
2017-Jun-15 05:55N 44°18' E 008°29'0 0.0
2017-Jun-15 05:25N 44°18' E 008°29'0 0.0
2017-Jun-15 04:55N 44°18' E 008°29'0 0.0
2017-Jun-15 04:19N 44°18' E 008°29'0 0.0
2017-Jun-14 21:46N 44°18' E 008°29'0 0.0
2017-Jun-14 21:28N 44°18' E 008°29'0 0.0
2017-Jun-14 20:46N 44°18' E 008°29'0 0.0
2017-Jun-14 20:28N 44°18' E 008°29'0 0.0
2017-Jun-14 19:58N 44°18' E 008°29'0 0.0
2017-Jun-14 19:22N 44°18' E 008°29'0 0.0
2017-Jun-14 18:58N 44°18' E 008°29'0 0.0
2017-Jun-14 18:28N 44°18' E 008°29'0 0.0
2017-Jun-14 17:58N 44°18' E 008°29'0 0.7
2017-Jun-14 17:27N 44°19' E 008°30'0 0.7
2017-Jun-14 16:55N 44°18' E 008°29'0 0.0
2017-Jun-14 16:19N 44°18' E 008°29'0 0.0
2017-Jun-14 15:55N 44°18' E 008°29'0 0.0
2017-Jun-14 15:25N 44°18' E 008°29'0 0.0
2017-Jun-14 14:43N 44°18' E 008°29'0 0.7
2017-Jun-14 14:00N 44°19' E 008°30'2 4.0
2017-Jun-14 13:30N 44°17' E 008°29'2 3.0
2017-Jun-14 12:58N 44°16' E 008°27'1 1.9
2017-Jun-14 12:30N 44°16' E 008°28'2 0.9
2017-Jun-14 09:58N 44°18' E 008°29'0 0.0
2017-Jun-14 09:28N 44°18' E 008°29'0 0.0
2017-Jun-14 06:37N 44°18' E 008°29'0 0.0
2017-Jun-14 05:19N 44°18' E 008°29'0 0.0
2017-Jun-14 04:55N 44°18' E 008°29'0 0.0
2017-Jun-14 04:25N 44°18' E 008°29'0 0.0
2017-Jun-14 01:52N 44°18' E 008°29'  
Track history (hours):
 
Tides and Currents Weather Stations Pressure Air Temp Water Temp Dewpoint Dewpoint Depression Visibility Wind Speed Wind Dir Waves Ship Positions

Citta Di Savona

Last reported at 2017-Jun-23 13:25 UTC. Time now 2017-Jun-23 14:05 UTC.
Position N 44°18' E 008°29'.

Length 31 m; draft 4.2 m.

Type: Tug. MMSI: 247402000.

Date/timePositionNaut miles runAvg speedWind from/ knotsBaromVisibWave heightAir tempDewpointWater temp
2017-Jun-23 13:25N 44°18' E 008°29'0 0.0
2017-Jun-23 12:55N 44°18' E 008°29'0 0.0
2017-Jun-23 12:19N 44°18' E 008°29'0 0.0
2017-Jun-23 07:52N 44°18' E 008°29'0 0.0
2017-Jun-23 07:28N 44°18' E 008°29'0 0.0
2017-Jun-23 06:58N 44°18' E 008°29'0 0.6
2017-Jun-23 06:30N 44°19' E 008°29'2 4.4
2017-Jun-23 06:00N 44°17' E 008°28'1 2.4
2017-Jun-23 05:30N 44°16' E 008°27'1 2.5
2017-Jun-23 05:00N 44°16' E 008°29'3 5.3
2017-Jun-23 04:30N 44°19' E 008°30'0 0.9
2017-Jun-23 04:00N 44°18' E 008°29'0 0.0
2017-Jun-23 03:12N 44°18' E 008°29'0 0.0
2017-Jun-23 02:42N 44°18' E 008°29'0 0.0
2017-Jun-23 02:30N 44°18' E 008°29'0 0.0
2017-Jun-23 02:00N 44°18' E 008°29'0 0.0
2017-Jun-23 01:30N 44°18' E 008°29'0 0.0
2017-Jun-23 01:00N 44°18' E 008°29'0 0.0
2017-Jun-23 00:24N 44°18' E 008°29'0 0.0
2017-Jun-22 23:54N 44°18' E 008°29'0 0.0
2017-Jun-22 13:39N 44°18' E 008°29'1 5.4
2017-Jun-22 13:30N 44°19' E 008°30'3 6.3
2017-Jun-22 13:00N 44°16' E 008°28'0 0.2
2017-Jun-22 12:27N 44°17' E 008°28'0 0.3
2017-Jun-22 11:58N 44°17' E 008°28'2 0.5
2017-Jun-22 07:14N 44°18' E 008°29'0 0.0
2017-Jun-22 06:56N 44°18' E 008°29'0 0.0
2017-Jun-22 06:26N 44°18' E 008°29'0 0.0
2017-Jun-22 05:56N 44°18' E 008°29'0 0.0
2017-Jun-22 05:26N 44°18' E 008°29'0 0.0
2017-Jun-22 04:56N 44°18' E 008°29'0 0.0
2017-Jun-22 04:26N 44°18' E 008°29'0 0.0
2017-Jun-22 03:50N 44°18' E 008°29'0 0.0
2017-Jun-22 03:26N 44°18' E 008°29'0 0.0
2017-Jun-22 02:56N 44°18' E 008°29'0 0.0
2017-Jun-22 02:26N 44°18' E 008°29'0 0.0
2017-Jun-22 01:56N 44°18' E 008°29'0 0.0
2017-Jun-22 01:26N 44°18' E 008°29'0 0.0
2017-Jun-21 21:56N 44°18' E 008°29'0 0.0
2017-Jun-21 21:29N 44°18' E 008°29'0 0.0
2017-Jun-21 20:47N 44°18' E 008°29'0 0.0
2017-Jun-21 20:26N 44°18' E 008°29'0 0.0
2017-Jun-21 19:53N 44°18' E 008°29'0 0.0
2017-Jun-21 19:11N 44°18' E 008°29'0 0.0
2017-Jun-21 18:59N 44°18' E 008°29'0 0.0
2017-Jun-21 18:29N 44°18' E 008°29'0 0.0
2017-Jun-21 17:59N 44°18' E 008°29'0 0.0
2017-Jun-21 17:29N 44°18' E 008°29'0 0.0
2017-Jun-21 16:59N 44°18' E 008°29'0 0.9
2017-Jun-21 16:30N 44°19' E 008°30'0 0.4
2017-Jun-21 16:00N 44°19' E 008°30'0 0.9
2017-Jun-21 15:26N 44°18' E 008°29'0 0.0
2017-Jun-21 14:50N 44°18' E 008°29'0 0.0
2017-Jun-21 08:08N 44°18' E 008°29'0 0.0
2017-Jun-21 07:56N 44°18' E 008°29'1 1.9
2017-Jun-21 07:30N 44°19' E 008°30'3 5.7
2017-Jun-21 06:58N 44°17' E 008°28'0 0.1
2017-Jun-21 06:28N 44°17' E 008°28'0 0.5
2017-Jun-21 05:58N 44°16' E 008°28'2 4.5
2017-Jun-21 05:30N 44°18' E 008°30'1 0.9
2017-Jun-21 04:56N 44°18' E 008°29'0 0.0
2017-Jun-21 04:26N 44°18' E 008°29'0 0.0
2017-Jun-21 03:56N 44°18' E 008°29'0 0.0
2017-Jun-21 03:26N 44°18' E 008°29'0 0.0
2017-Jun-21 02:50N 44°18' E 008°29'0 0.0
2017-Jun-21 02:20N 44°18' E 008°29'0 0.0
2017-Jun-21 01:56N 44°18' E 008°29'0 0.0
2017-Jun-21 01:26N 44°18' E 008°29'0 0.0
2017-Jun-21 00:50N 44°18' E 008°29'0 0.0
2017-Jun-21 00:26N 44°18' E 008°29'0 0.0
2017-Jun-20 23:56N 44°18' E 008°29'0 0.0
2017-Jun-20 23:02N 44°18' E 008°29'0 0.0
2017-Jun-20 22:56N 44°18' E 008°29'0 0.0
2017-Jun-20 22:26N 44°18' E 008°29'0 0.0
2017-Jun-20 21:56N 44°18' E 008°29'0 0.0
2017-Jun-20 21:20N 44°18' E 008°29'0 0.0
2017-Jun-20 20:56N 44°18' E 008°29'0 0.0
2017-Jun-20 19:44N 44°18' E 008°29'0 0.0
2017-Jun-20 19:20N 44°18' E 008°29'0 0.0
2017-Jun-20 18:56N 44°18' E 008°29'0 0.0
2017-Jun-20 18:14N 44°18' E 008°29'1 3.2
2017-Jun-20 18:00N 44°19' E 008°30'0 0.4
2017-Jun-20 17:30N 44°19' E 008°30'0 0.7
2017-Jun-20 17:00N 44°19' E 008°30'1 1.8
2017-Jun-20 16:30N 44°18' E 008°29'0 0.0
2017-Jun-20 15:42N 44°18' E 008°29'0 0.0
2017-Jun-20 15:30N 44°18' E 008°29'0 0.0
2017-Jun-20 12:54N 44°18' E 008°29'0 0.0
2017-Jun-20 10:57N 44°18' E 008°29'0 0.0
2017-Jun-20 09:03N 44°18' E 008°29'0 0.1
2017-Jun-20 08:57N 44°18' E 008°29'0 0.0
2017-Jun-20 08:27N 44°18' E 008°29'0 0.0
2017-Jun-20 07:57N 44°18' E 008°29'0 0.0
2017-Jun-20 07:28N 44°18' E 008°29'0 0.7
2017-Jun-20 06:58N 44°19' E 008°30'1 1.2
2017-Jun-20 06:30N 44°19' E 008°31'1 1.7
2017-Jun-20 05:58N 44°18' E 008°29'0 0.0
2017-Jun-20 05:17N 44°18' E 008°29'0 1.6
2017-Jun-20 04:59N 44°19' E 008°30'0 1.0
2017-Jun-20 04:30N 44°19' E 008°31'1 1.6
2017-Jun-20 03:55N 44°18' E 008°29'0 0.0
2017-Jun-19 17:49N 44°18' E 008°29'0 0.0
2017-Jun-19 17:25N 44°18' E 008°29'0 0.0
2017-Jun-19 16:58N 44°18' E 008°29'0 0.0
2017-Jun-19 16:28N 44°18' E 008°29'0 0.0
2017-Jun-19 15:58N 44°18' E 008°29'0 0.0
2017-Jun-19 15:28N 44°18' E 008°29'0 0.0
2017-Jun-19 14:55N 44°18' E 008°29'0 0.0
2017-Jun-19 13:49N 44°18' E 008°29'0 0.0
2017-Jun-19 13:25N 44°18' E 008°29'0 0.0
2017-Jun-19 12:49N 44°18' E 008°29'0 0.0
2017-Jun-19 12:26N 44°18' E 008°29'1 1.3
2017-Jun-19 11:57N 44°19' E 008°30'1 2.1
2017-Jun-19 11:30N 44°19' E 008°31'1 1.6
2017-Jun-19 11:00N 44°19' E 008°30'0 0.1
2017-Jun-19 10:27N 44°19' E 008°30'0 0.6
2017-Jun-19 10:00N 44°19' E 008°30'1 1.4
2017-Jun-19 09:27N 44°18' E 008°29'0 0.0
2017-Jun-19 09:00N 44°18' E 008°29'0 0.0
2017-Jun-19 08:30N 44°18' E 008°29'0 0.0
2017-Jun-19 08:00N 44°18' E 008°29'0 0.0
2017-Jun-19 07:30N 44°18' E 008°29'0 0.0
2017-Jun-19 07:00N 44°18' E 008°29'0 0.0
2017-Jun-19 06:30N 44°18' E 008°29'0 0.0
2017-Jun-19 06:00N 44°18' E 008°29'0 0.0
2017-Jun-19 05:30N 44°18' E 008°29'0 0.0
2017-Jun-19 05:00N 44°18' E 008°29'0 0.0
2017-Jun-19 04:30N 44°18' E 008°29'0 0.0
2017-Jun-18 21:51N 44°18' E 008°29'0 0.0
2017-Jun-18 21:15N 44°18' E 008°29'0 0.0
2017-Jun-18 20:03N 44°18' E 008°29'0 0.1
2017-Jun-18 20:00N 44°18' E 008°29'0 0.0
2017-Jun-18 19:27N 44°18' E 008°29'0 0.0
2017-Jun-18 18:51N 44°18' E 008°29'0 0.0
2017-Jun-18 18:21N 44°18' E 008°29'0 0.0
2017-Jun-18 17:57N 44°18' E 008°29'0 0.0
2017-Jun-18 17:27N 44°18' E 008°29'0 0.0
2017-Jun-18 16:57N 44°18' E 008°29'0 0.0
2017-Jun-18 16:21N 44°18' E 008°29'0 0.0
2017-Jun-18 15:57N 44°18' E 008°29'0 0.0
2017-Jun-18 15:15N 44°18' E 008°29'0 0.0
2017-Jun-18 14:45N 44°18' E 008°29'0 0.0
2017-Jun-18 13:57N 44°18' E 008°29'0 0.0
2017-Jun-18 13:27N 44°18' E 008°29'0 0.0
2017-Jun-18 12:57N 44°18' E 008°29'0 0.0
2017-Jun-18 10:30N 44°18' E 008°29'0 0.0
2017-Jun-18 08:21N 44°18' E 008°29'0 0.0
2017-Jun-18 07:57N 44°18' E 008°29'0 0.0
2017-Jun-18 07:24N 44°18' E 008°29'0 0.0
2017-Jun-18 06:57N 44°18' E 008°29'0 0.8
2017-Jun-18 06:30N 44°19' E 008°30'1 1.7
2017-Jun-18 06:00N 44°19' E 008°31'1 1.6
2017-Jun-18 05:26N 44°18' E 008°29'0 0.0
2017-Jun-18 04:50N 44°18' E 008°29'0 0.0
2017-Jun-18 04:29N 44°18' E 008°29'0 0.0
2017-Jun-17 18:21N 44°18' E 008°29'0 0.8
2017-Jun-17 18:00N 44°19' E 008°29'0 0.1
2017-Jun-17 17:31N 44°19' E 008°30'0 0.5
2017-Jun-17 16:55N 44°18' E 008°29'0 0.0
2017-Jun-17 16:25N 44°18' E 008°29'0 0.0
2017-Jun-17 15:55N 44°18' E 008°29'0 0.0
2017-Jun-17 15:25N 44°18' E 008°29'0 0.0
2017-Jun-17 14:55N 44°18' E 008°29'0 0.0
2017-Jun-17 14:25N 44°18' E 008°29'0 0.0
2017-Jun-17 13:25N 44°18' E 008°29'0 0.0
2017-Jun-17 12:55N 44°18' E 008°29'0 0.0
2017-Jun-17 12:25N 44°18' E 008°29'0 0.0
2017-Jun-17 11:55N 44°18' E 008°29'0 0.0
2017-Jun-17 11:28N 44°18' E 008°29'0 0.0
2017-Jun-17 10:58N 44°18' E 008°29'0 0.0
2017-Jun-17 10:28N 44°18' E 008°29'0 0.0
2017-Jun-17 09:13N 44°18' E 008°29'0 0.0
2017-Jun-17 08:43N 44°18' E 008°29'0 0.0
2017-Jun-17 08:28N 44°18' E 008°29'0 0.0
2017-Jun-17 07:58N 44°18' E 008°29'0 0.0
2017-Jun-17 07:25N 44°18' E 008°29'0 0.0
2017-Jun-17 06:55N 44°18' E 008°29'0 0.0
2017-Jun-17 06:25N 44°18' E 008°29'1 1.4
2017-Jun-17 05:58N 44°19' E 008°30'0 0.0
2017-Jun-17 05:29N 44°19' E 008°30'0 0.6
2017-Jun-17 04:59N 44°19' E 008°30'0 0.3
2017-Jun-17 04:29N 44°19' E 008°30'1 1.1
2017-Jun-17 03:47N 44°18' E 008°29'0 0.0
2017-Jun-17 03:29N 44°18' E 008°29'0 0.0
2017-Jun-17 02:59N 44°18' E 008°29'0 0.0
2017-Jun-17 02:26N 44°18' E 008°29'0 0.0
2017-Jun-17 01:47N 44°18' E 008°29'0 0.0
2017-Jun-16 12:55N 44°18' E 008°29'0 0.0
2017-Jun-16 07:46N 44°18' E 008°29'0 0.0
2017-Jun-16 07:28N 44°18' E 008°29'0 0.0
2017-Jun-16 06:40N 44°18' E 008°29'0 0.0
2017-Jun-16 06:28N 44°18' E 008°29'0 0.0
2017-Jun-16 05:58N 44°18' E 008°29'0 0.0
2017-Jun-16 05:28N 44°18' E 008°29'0 0.0
2017-Jun-16 04:58N 44°18' E 008°29'0 0.0
2017-Jun-16 04:28N 44°18' E 008°29'0 0.0
2017-Jun-15 08:07N 44°18' E 008°29'0 0.0
2017-Jun-15 07:37N 44°18' E 008°29'0 0.0
2017-Jun-15 06:19N 44°18' E 008°29'0 0.0
2017-Jun-15 05:55N 44°18' E 008°29'0 0.0
2017-Jun-15 05:25N 44°18' E 008°29'0 0.0
2017-Jun-15 04:55N 44°18' E 008°29'0 0.0
2017-Jun-15 04:19N 44°18' E 008°29'0 0.0
2017-Jun-14 21:46N 44°18' E 008°29'0 0.0
2017-Jun-14 21:28N 44°18' E 008°29'0 0.0
2017-Jun-14 20:46N 44°18' E 008°29'0 0.0
2017-Jun-14 20:28N 44°18' E 008°29'0 0.0
2017-Jun-14 19:58N 44°18' E 008°29'0 0.0
2017-Jun-14 19:22N 44°18' E 008°29'0 0.0
2017-Jun-14 18:58N 44°18' E 008°29'0 0.0
2017-Jun-14 18:28N 44°18' E 008°29'0 0.0
2017-Jun-14 17:58N 44°18' E 008°29'0 0.7
2017-Jun-14 17:27N 44°19' E 008°30'0 0.7
2017-Jun-14 16:55N 44°18' E 008°29'0 0.0
2017-Jun-14 16:19N 44°18' E 008°29'0 0.0
2017-Jun-14 15:55N 44°18' E 008°29'0 0.0
2017-Jun-14 15:25N 44°18' E 008°29'0 0.0
2017-Jun-14 14:43N 44°18' E 008°29'0 0.7
2017-Jun-14 14:00N 44°19' E 008°30'2 4.0
2017-Jun-14 13:30N 44°17' E 008°29'2 3.0
2017-Jun-14 12:58N 44°16' E 008°27'1 1.9
2017-Jun-14 12:30N 44°16' E 008°28'2 0.9
2017-Jun-14 09:58N 44°18' E 008°29'0 0.0
2017-Jun-14 09:28N 44°18' E 008°29'0 0.0
2017-Jun-14 06:37N 44°18' E 008°29'0 0.0
2017-Jun-14 05:19N 44°18' E 008°29'0 0.0
2017-Jun-14 04:55N 44°18' E 008°29'0 0.0
2017-Jun-14 04:25N 44°18' E 008°29'0 0.0
2017-Jun-14 01:52N 44°18' E 008°29'  

Dump ship's entire track history